Haughton Green, United Kingdom
Current Conditions -  °F | °C
As of 1:50 PM on Friday 26 Dec 2014 (Local Time) from EGCC Reporting Station
Few Clouds Few Clouds  
Wind Chill: 34°   Ceiling: Unl
Heat Index: 39°   Visibility: 6mi
Dew Point: 36°   Wind: 7mph
Humidity: 87%   Direction: 160°SSE
Pressure: 30.12"   Gusts: NA
Location:  53.44°N, 2.1°W
Report Text: EGCC 261350Z 16006KT 9999 FEW030 04/02 Q1020 NOSIG
Loading
Personal Weather Stations






























Interactive Weather Map New forecast layout! Learn more

10-Day Weather Forecast

Advertisements
Track Severe Weather on mobile